Flight Track Log - Related Links

Times and Time Zones

All times are in EDT time to prevent confusion due to time zone crossing. See the SKW6335 flight status page for this flight to view local times or setup timezone preferences in your user account.

Time Position Orientation Groundspeed Altitude Reporting Facility
EDT Latitude Longitude Course Direction KTS MPH feet Rate Location/Type
Fri 05:55:22 PM 33.9333 -118.4333 140° Southeast 160 184 1,600  Level Southern California TRACON
Fri 05:56:22 PM 33.8833 -118.4833 220° Southwest 201 231 3,000 1,421 Climbing Southern California TRACON
Fri 05:57:16 PM 33.8333 -118.4833 180° South 203 234 4,300 1,333 Climbing Southern California TRACON
Fri 05:57:34 PM 33.8342 -118.4928 276° West 203 234 4,600 1,481 Climbing Los Angeles Center
Fri 05:58:00 PM 33.6897 -118.1495 139° Southeast  Level Estimated
Fri 05:58:37 PM 33.7717 -118.5108 194° South 201 231 6,300  Level Los Angeles Center
Fri 05:59:00 PM 33.6266 -118.0847 139° Southeast  Level FlightAware Approximate
Fri 05:59:39 PM 33.7267 -118.4722 144° Southeast 198 228 7,700  Level Los Angeles Center
Fri 06:00:00 PM 33.5635 -118.0201 140° Southeast  Level FlightAware Approximate
Fri 06:00:41 PM 33.6742 -118.4131 137° Southeast 222 255 8,600  Level Los Angeles Center
Fri 06:01:43 PM 33.6381 -118.3467 123° Southeast 235 270 9,100 242 Climbing Los Angeles Center
Fri 06:02:45 PM 33.5983 -118.2783 125° Southeast 246 283 9,100 -48 Level Los Angeles Center
Fri 06:03:47 PM 33.5622 -118.2119 123° Southeast 245 282 9,000 -48 Descending Los Angeles Center
Fri 06:04:49 PM 33.5206 -118.1333 122° Southeast 239 275 9,000  Level Los Angeles Center
Fri 06:05:51 PM 33.4869 -118.0675 121° Southeast 236 272 9,000  Level Los Angeles Center
Fri 06:06:53 PM 33.4542 -118.0017 121° Southeast 233 268 9,000  Level Los Angeles Center
Fri 06:07:56 PM 33.4200 -117.9375 123° Southeast 231 266 9,000  Level Los Angeles Center
Fri 06:08:58 PM 33.3839 -117.8750 125° Southeast 229 264 9,000  Level Los Angeles Center
Fri 06:10:00 PM 33.3442 -117.8047 124° Southeast 235 270 9,000  Level Los Angeles Center
Fri 06:11:02 PM 33.3042 -117.7331 124° Southeast 234 269 9,000  Level Los Angeles Center
Fri 06:12:04 PM 33.2689 -117.6667 122° Southeast 236 272 9,000  Level Los Angeles Center
Fri 06:13:06 PM 33.2350 -117.6000 121° Southeast 236 272 9,000  Level Los Angeles Center
Fri 06:13:25 PM 33.2167 -117.5833 143° Southeast 235 270 9,000  Level Southern California TRACON
Fri 06:14:25 PM 33.1833 -117.5000 116° Southeast 237 273 9,000 -250 Level Southern California TRACON
Fri 06:15:25 PM 33.1500 -117.4333 121° Southeast 248 285 8,500 -449 Descending Southern California TRACON
Fri 06:16:12 PM 33.1125 -117.3917 137° Southeast 246 283 8,200 -495 Descending Los Angeles Center
Fri 06:17:14 PM 33.0433 -117.3611 160° South 257 296 7,600 -563 Descending Los Angeles Center
Fri 06:18:20 PM 32.9667 -117.3333 163° South 258 297 7,000 -318 Descending Southern California TRACON
Fri 06:19:26 PM 32.9000 -117.2833 148° Southeast 245 282 6,900 -50 Descending Southern California TRACON
Fri 06:20:21 PM 32.8500 -117.2500 151° Southeast 237 273 6,900 -397 Level Southern California TRACON
Fri 06:21:27 PM 32.8167 -117.1667 115° Southeast 249 287 6,100 -1,048 Descending Southern California TRACON
Fri 06:22:27 PM 32.7833 -117.1167 128° Southeast 209 241 4,700 -1,878 Descending Southern California TRACON
Fri 06:23:22 PM 32.7500 -117.1000 157° South 174 200 2,500 -2,400 Descending Southern California TRACON

Login

Don't have an account? Register now (free) for customized features, flight alerts, and more!